createdAt,value
2022-08-31T00:01:13.955Z,87.60
2022-08-31T00:03:58.630Z,87.80
2022-08-31T00:06:28.061Z,87.90
2022-08-31T00:08:57.860Z,87.90
2022-08-31T00:11:34.345Z,87.90
2022-08-31T00:14:09.301Z,88.00
2022-08-31T00:16:45.591Z,88.10
2022-08-31T00:19:15.890Z,88.20
2022-08-31T00:21:45.537Z,88.40
2022-08-31T00:24:15.049Z,88.60
2022-08-31T00:26:44.553Z,88.60
2022-08-31T00:29:14.936Z,88.70
2022-08-31T00:31:44.527Z,88.70
2022-08-31T00:34:13.951Z,88.70
2022-08-31T00:36:43.459Z,88.80
2022-08-31T00:39:13.313Z,89.00
2022-08-31T00:41:43.750Z,89.60
2022-08-31T00:44:13.174Z,89.10
2022-08-31T00:46:44.567Z,89.10
2022-08-31T00:49:23.047Z,89.10
2022-08-31T00:51:55.817Z,89.10
2022-08-31T00:54:33.264Z,89.00
2022-08-31T00:57:04.379Z,89.00
2022-08-31T00:59:34.649Z,88.90
2022-08-31T01:02:04.694Z,89.00
2022-08-31T01:04:34.826Z,89.10
2022-08-31T01:07:08.274Z,89.10
2022-08-31T01:09:43.529Z,89.30
2022-08-31T01:12:27.661Z,89.10
2022-08-31T01:14:59.718Z,89.00
2022-08-31T01:17:32.689Z,88.80
2022-08-31T01:20:36.319Z,88.60
2022-08-31T01:23:15.568Z,88.50
2022-08-31T01:25:48.671Z,88.40
2022-08-31T01:28:18.128Z,88.50
2022-08-31T01:31:04.239Z,88.60
2022-08-31T01:33:37.828Z,88.80
2022-08-31T01:36:15.871Z,88.80
2022-08-31T01:38:47.010Z,89.00
2022-08-31T01:41:23.206Z,89.10
2022-08-31T01:43:53.196Z,89.30
2022-08-31T01:46:23.225Z,89.10
2022-08-31T01:48:52.746Z,89.00
2022-08-31T01:51:22.964Z,89.00
2022-08-31T01:53:54.758Z,89.60
2022-08-31T01:56:32.228Z,89.20
2022-08-31T01:59:08.417Z,89.10
2022-08-31T02:02:07.511Z,89.10
2022-08-31T02:04:39.803Z,89.00
2022-08-31T02:07:11.963Z,88.90
2022-08-31T02:09:41.360Z,88.90
2022-08-31T02:12:12.838Z,88.90
2022-08-31T02:14:42.310Z,88.90
2022-08-31T02:17:11.867Z,88.80
2022-08-31T02:19:41.799Z,88.70
2022-08-31T02:22:11.182Z,88.50
2022-08-31T02:24:40.531Z,88.50
2022-08-31T02:27:09.942Z,88.40
2022-08-31T02:29:39.924Z,88.20
2022-08-31T02:32:09.372Z,88.00
2022-08-31T02:34:50.526Z,87.90
2022-08-31T02:37:20.993Z,88.40
2022-08-31T02:39:51.077Z,87.70
2022-08-31T02:42:23.029Z,87.50
2022-08-31T02:44:52.889Z,87.10
2022-08-31T02:47:22.186Z,87.10
2022-08-31T02:50:14.309Z,86.80
2022-08-31T02:52:46.830Z,86.50
2022-08-31T02:55:18.007Z,86.60
2022-08-31T02:57:52.183Z,86.60
2022-08-31T03:00:24.468Z,86.60
2022-08-31T03:02:55.003Z,86.50
2022-08-31T03:05:25.684Z,86.50
2022-08-31T03:07:55.324Z,86.60
2022-08-31T03:10:26.436Z,86.80
2022-08-31T03:12:56.304Z,86.90
2022-08-31T03:15:28.622Z,87.10
2022-08-31T03:17:58.156Z,87.20
2022-08-31T03:20:28.593Z,87.30
2022-08-31T03:22:59.501Z,87.40
2022-08-31T03:25:29.279Z,87.60
2022-08-31T03:27:59.084Z,87.70
2022-08-31T03:30:29.938Z,87.80
2022-08-31T03:33:12.944Z,87.70
2022-08-31T03:35:44.844Z,87.70
2022-08-31T03:38:16.113Z,87.40
2022-08-31T03:40:46.686Z,87.20
2022-08-31T03:43:19.213Z,87.20
2022-08-31T03:45:49.768Z,87.20
2022-08-31T03:48:19.808Z,86.90
2022-08-31T03:50:49.462Z,86.60
2022-08-31T03:53:25.587Z,86.60
2022-08-31T03:56:01.888Z,86.70
2022-08-31T03:58:33.065Z,86.70
2022-08-31T04:01:03.709Z,86.60
2022-08-31T04:03:51.465Z,86.80
2022-08-31T04:06:42.499Z,86.90
2022-08-31T04:09:30.311Z,87.00
2022-08-31T04:12:28.731Z,87.00
2022-08-31T04:15:19.300Z,86.70
2022-08-31T04:18:07.500Z,86.60
2022-08-31T04:20:46.968Z,86.50
2022-08-31T04:23:16.381Z,86.50
2022-08-31T04:25:52.378Z,86.50
2022-08-31T04:28:21.862Z,86.60
2022-08-31T04:30:53.565Z,86.50
2022-08-31T04:33:23.236Z,87.20
2022-08-31T04:35:52.592Z,86.70
2022-08-31T04:38:22.162Z,86.70
2022-08-31T04:40:52.483Z,86.60
2022-08-31T04:43:24.823Z,86.40
2022-08-31T04:45:54.249Z,86.20
2022-08-31T04:48:24.241Z,86.00
2022-08-31T04:51:04.957Z,85.50
2022-08-31T04:53:36.457Z,84.80
2022-08-31T04:56:19.903Z,84.40
2022-08-31T04:58:56.114Z,83.60
2022-08-31T05:01:36.319Z,83.00
2022-08-31T05:04:18.647Z,82.70
2022-08-31T05:06:49.259Z,82.30
2022-08-31T05:09:23.053Z,82.30
2022-08-31T05:11:55.983Z,82.30
2022-08-31T05:14:26.430Z,82.30
2022-08-31T05:17:06.376Z,82.50
2022-08-31T05:19:44.462Z,82.40
2022-08-31T05:22:16.758Z,82.10
2022-08-31T05:24:48.214Z,81.90
2022-08-31T05:27:17.509Z,81.40
2022-08-31T05:29:47.719Z,81.00
2022-08-31T05:32:46.549Z,80.20
2022-08-31T05:35:16.979Z,79.20
2022-08-31T05:37:51.692Z,78.90
2022-08-31T05:40:22.494Z,78.50
2022-08-31T05:42:51.976Z,78.20
2022-08-31T05:45:21.705Z,77.70
2022-08-31T05:47:51.016Z,77.30
2022-08-31T05:50:20.494Z,77.00
2022-08-31T05:52:50.563Z,76.50
2022-08-31T05:55:19.942Z,76.10
2022-08-31T05:57:49.202Z,75.60
2022-08-31T06:00:19.386Z,75.10
2022-08-31T06:02:55.905Z,74.70
2022-08-31T06:05:25.862Z,74.10
2022-08-31T06:07:55.283Z,73.20
2022-08-31T06:10:25.354Z,72.40
2022-08-31T06:12:54.861Z,72.10
2022-08-31T06:15:24.873Z,71.50
2022-08-31T06:17:54.450Z,71.20
2022-08-31T06:20:25.787Z,71.00
2022-08-31T06:22:56.292Z,71.00
2022-08-31T06:25:36.821Z,71.20
2022-08-31T06:28:07.488Z,71.20
2022-08-31T06:30:54.471Z,70.90
2022-08-31T06:33:24.809Z,70.40
2022-08-31T06:36:15.005Z,69.80
2022-08-31T06:39:07.561Z,69.00
2022-08-31T06:41:44.451Z,68.00
2022-08-31T06:44:43.334Z,67.20
2022-08-31T06:47:24.008Z,66.90
2022-08-31T06:49:54.057Z,66.40
2022-08-31T06:52:24.619Z,66.00
2022-08-31T06:55:09.629Z,65.80
2022-08-31T06:57:57.387Z,65.90
2022-08-31T07:00:45.764Z,65.70
2022-08-31T07:03:46.416Z,65.40
2022-08-31T07:06:24.403Z,65.10
2022-08-31T07:09:00.660Z,64.80
2022-08-31T07:11:44.526Z,64.10
2022-08-31T07:14:19.087Z,63.20
2022-08-31T07:16:49.562Z,62.50
2022-08-31T07:19:20.517Z,61.80
2022-08-31T07:22:00.291Z,61.40
2022-08-31T07:24:35.253Z,60.60
2022-08-31T07:27:13.053Z,60.20
2022-08-31T07:29:50.619Z,60.00
2022-08-31T07:32:21.191Z,60.00
2022-08-31T07:34:58.460Z,59.70
2022-08-31T07:37:59.843Z,59.40
2022-08-31T07:40:51.145Z,59.10
2022-08-31T07:43:22.605Z,58.90
2022-08-31T07:45:52.710Z,58.50
2022-08-31T07:48:27.467Z,58.10
2022-08-31T07:51:15.092Z,58.10
2022-08-31T07:54:04.765Z,58.20
2022-08-31T07:56:43.321Z,58.20
2022-08-31T07:59:15.237Z,57.90
2022-08-31T08:01:48.513Z,57.30
2022-08-31T08:04:21.930Z,56.70
2022-08-31T08:07:12.132Z,56.30
2022-08-31T08:09:59.353Z,55.80
2022-08-31T08:12:51.211Z,55.50
2022-08-31T08:15:36.237Z,55.50
2022-08-31T08:18:21.360Z,55.70
2022-08-31T08:20:55.558Z,55.50
2022-08-31T08:23:27.826Z,55.10
2022-08-31T08:26:37.334Z,55.10
2022-08-31T08:29:40.555Z,55.10
2022-08-31T08:32:17.378Z,55.20
2022-08-31T08:34:47.414Z,55.70
2022-08-31T08:37:17.140Z,56.10
2022-08-31T08:39:47.998Z,55.90
2022-08-31T08:42:24.175Z,55.60
2022-08-31T08:44:53.699Z,55.50
2022-08-31T08:47:38.295Z,55.50
2022-08-31T08:50:10.694Z,55.40
2022-08-31T08:52:47.160Z,55.10
2022-08-31T08:55:35.043Z,54.80
2022-08-31T08:58:13.544Z,54.90
2022-08-31T09:00:55.132Z,55.00
2022-08-31T09:04:06.240Z,55.30
2022-08-31T09:07:23.609Z,55.40
2022-08-31T09:10:25.597Z,55.20
2022-08-31T09:13:01.759Z,55.00
2022-08-31T09:15:40.267Z,54.60
2022-08-31T09:18:34.482Z,54.50
2022-08-31T09:21:34.480Z,54.30
2022-08-31T09:24:17.107Z,54.20
2022-08-31T09:27:11.430Z,54.00
2022-08-31T09:29:45.082Z,53.90
2022-08-31T09:32:24.854Z,53.70
2022-08-31T09:35:09.206Z,53.50
2022-08-31T09:37:46.282Z,53.20
2022-08-31T09:40:43.135Z,53.50
2022-08-31T09:43:31.477Z,52.80
2022-08-31T09:46:11.868Z,52.70
2022-08-31T09:48:56.428Z,52.30
2022-08-31T09:51:30.413Z,52.00
2022-08-31T09:54:46.535Z,52.20
2022-08-31T09:57:17.625Z,52.10
2022-08-31T09:59:51.678Z,51.80
2022-08-31T10:02:26.244Z,51.60
2022-08-31T10:05:06.785Z,51.50
2022-08-31T10:07:49.073Z,51.10
2022-08-31T10:10:32.719Z,50.90
2022-08-31T10:13:18.135Z,50.60
2022-08-31T10:15:59.566Z,50.30
2022-08-31T10:18:56.193Z,50.20
2022-08-31T10:21:55.116Z,50.00
2022-08-31T10:24:50.549Z,49.80
2022-08-31T10:27:31.597Z,49.80
2022-08-31T10:30:24.617Z,49.30
2022-08-31T10:33:14.991Z,49.00
2022-08-31T10:35:50.227Z,48.40
2022-08-31T10:38:36.637Z,48.30
2022-08-31T10:41:30.731Z,48.00
2022-08-31T10:44:28.750Z,47.80
2022-08-31T10:47:02.845Z,47.70
2022-08-31T10:49:35.464Z,47.30
2022-08-31T10:52:29.502Z,47.00
2022-08-31T10:55:23.737Z,46.80
2022-08-31T10:58:40.219Z,46.70
2022-08-31T11:01:28.817Z,46.50
2022-08-31T11:04:45.362Z,46.10
2022-08-31T11:07:42.150Z,45.60
2022-08-31T11:10:57.134Z,45.70
2022-08-31T11:14:08.154Z,45.70
2022-08-31T11:17:32.318Z,45.40
2022-08-31T11:20:43.627Z,44.60
2022-08-31T11:23:45.030Z,43.30
2022-08-31T11:26:57.787Z,43.10
2022-08-31T11:29:43.316Z,42.90
2022-08-31T11:32:39.790Z,42.70
2022-08-31T11:35:10.774Z,41.90
2022-08-31T11:37:56.082Z,41.50
2022-08-31T11:40:44.137Z,41.10
2022-08-31T11:43:36.677Z,40.90
2022-08-31T11:46:27.167Z,40.50
2022-08-31T11:48:56.536Z,40.90
2022-08-31T11:51:45.962Z,41.00
2022-08-31T11:54:45.341Z,41.20
2022-08-31T11:57:24.557Z,41.70
2022-08-31T11:59:56.099Z,42.00
2022-08-31T12:02:26.148Z,43.10
2022-08-31T12:05:43.485Z,44.40
2022-08-31T12:08:15.444Z,45.60
2022-08-31T12:11:42.660Z,46.30
2022-08-31T12:14:36.661Z,46.90
2022-08-31T12:17:17.105Z,47.30
2022-08-31T12:20:07.776Z,48.00
2022-08-31T12:23:30.954Z,48.50
2022-08-31T12:26:25.547Z,48.60
2022-08-31T12:28:54.730Z,48.60
2022-08-31T12:31:24.890Z,48.10
2022-08-31T12:34:24.660Z,48.00
2022-08-31T12:36:54.134Z,48.00
2022-08-31T12:39:27.603Z,47.90
2022-08-31T12:42:03.107Z,47.80
2022-08-31T12:44:49.971Z,47.60
2022-08-31T12:47:44.560Z,47.20
2022-08-31T12:50:35.454Z,47.10
2022-08-31T12:53:36.757Z,47.00
2022-08-31T12:56:46.205Z,46.80
2022-08-31T13:00:00.601Z,46.50
2022-08-31T13:02:38.179Z,45.90
2022-08-31T13:05:32.260Z,44.80
2022-08-31T13:08:18.479Z,44.00
2022-08-31T13:10:47.850Z,42.40
2022-08-31T13:13:29.642Z,41.10
2022-08-31T13:16:07.993Z,40.60
2022-08-31T13:18:37.327Z,39.20
2022-08-31T13:21:07.423Z,36.00
2022-08-31T13:23:48.205Z,34.10
2022-08-31T13:26:25.078Z,35.90
2022-08-31T13:29:04.888Z,38.00
2022-08-31T13:31:47.037Z,39.20
2022-08-31T13:34:19.210Z,40.40
2022-08-31T13:36:55.043Z,41.30
2022-08-31T13:39:35.169Z,42.20
2022-08-31T13:42:23.097Z,42.90
2022-08-31T13:44:58.309Z,43.20
2022-08-31T13:47:48.592Z,43.40
2022-08-31T13:50:52.623Z,43.40
2022-08-31T13:54:04.851Z,41.50
2022-08-31T13:56:58.885Z,41.80
2022-08-31T13:59:38.999Z,42.30
2022-08-31T14:02:19.419Z,42.70
2022-08-31T14:05:03.423Z,43.00
2022-08-31T14:07:46.796Z,43.40
2022-08-31T14:10:27.433Z,43.70
2022-08-31T14:13:00.332Z,43.80
2022-08-31T14:15:53.600Z,43.90
2022-08-31T14:18:43.306Z,44.40
2022-08-31T14:21:21.855Z,44.60
2022-08-31T14:24:01.436Z,44.70
2022-08-31T14:26:37.078Z,44.80
2022-08-31T14:29:13.685Z,44.70
2022-08-31T14:31:49.323Z,44.60
2022-08-31T14:34:30.458Z,44.50
2022-08-31T14:37:08.102Z,44.10
2022-08-31T14:39:50.665Z,43.90
2022-08-31T14:42:26.599Z,43.80
2022-08-31T14:45:18.481Z,43.70
2022-08-31T14:47:52.434Z,44.10
2022-08-31T14:50:26.391Z,43.20
2022-08-31T14:52:57.556Z,43.10
2022-08-31T14:55:30.014Z,43.00
2022-08-31T14:58:12.018Z,42.90
2022-08-31T15:00:53.207Z,43.00
2022-08-31T15:03:24.693Z,42.80
2022-08-31T15:05:54.551Z,42.60
2022-08-31T15:08:38.457Z,42.30
2022-08-31T15:11:08.704Z,42.30
2022-08-31T15:13:39.510Z,42.50
2022-08-31T15:16:14.845Z,42.80
2022-08-31T15:18:44.961Z,43.10
2022-08-31T15:21:17.219Z,43.30
2022-08-31T15:23:48.346Z,43.50
2022-08-31T15:26:21.547Z,43.40
2022-08-31T15:28:52.651Z,43.20
2022-08-31T15:31:28.038Z,42.90
2022-08-31T15:33:59.962Z,42.80
2022-08-31T15:36:29.469Z,42.80
2022-08-31T15:38:59.040Z,42.80
2022-08-31T15:41:29.357Z,42.80
2022-08-31T15:43:58.792Z,42.90
2022-08-31T15:46:46.282Z,43.10
2022-08-31T15:49:15.577Z,43.30
2022-08-31T15:51:50.344Z,43.40
2022-08-31T15:54:27.346Z,43.70
2022-08-31T15:56:58.278Z,44.00
2022-08-31T15:59:27.610Z,44.10
2022-08-31T16:01:56.972Z,44.20
2022-08-31T16:04:26.410Z,44.10
2022-08-31T16:06:56.811Z,44.10
2022-08-31T16:09:26.236Z,43.90
2022-08-31T16:12:00.341Z,43.90
2022-08-31T16:14:30.267Z,43.90
2022-08-31T16:16:59.882Z,44.00
2022-08-31T16:19:35.426Z,44.00
2022-08-31T16:22:08.598Z,44.00
2022-08-31T16:24:39.234Z,44.10
2022-08-31T16:27:16.207Z,44.30
2022-08-31T16:29:47.689Z,44.60
2022-08-31T16:32:17.955Z,44.90
2022-08-31T16:34:47.319Z,45.20
2022-08-31T16:37:16.839Z,45.60
2022-08-31T16:39:47.231Z,46.00
2022-08-31T16:42:17.769Z,46.30
2022-08-31T16:44:47.958Z,46.60
2022-08-31T16:47:19.290Z,46.80
2022-08-31T16:49:48.716Z,47.10
2022-08-31T16:52:26.772Z,47.50
2022-08-31T16:54:57.594Z,47.80
2022-08-31T16:57:30.253Z,48.00
2022-08-31T17:00:00.142Z,48.20
2022-08-31T17:02:29.830Z,48.40
2022-08-31T17:05:04.584Z,48.70
2022-08-31T17:07:34.015Z,49.00
2022-08-31T17:10:07.156Z,49.30
2022-08-31T17:12:38.327Z,49.70
2022-08-31T17:15:09.917Z,50.10
2022-08-31T17:17:39.807Z,50.40
2022-08-31T17:20:13.245Z,50.80
2022-08-31T17:22:48.600Z,51.10
2022-08-31T17:25:18.725Z,51.50
2022-08-31T17:27:48.187Z,51.80
2022-08-31T17:30:20.971Z,52.10
2022-08-31T17:32:50.327Z,52.40
2022-08-31T17:35:19.760Z,52.70
2022-08-31T17:37:50.097Z,52.90
2022-08-31T17:40:19.867Z,53.10
2022-08-31T17:42:50.186Z,53.30
2022-08-31T17:45:21.331Z,53.70
2022-08-31T17:47:51.051Z,54.00
2022-08-31T17:50:21.357Z,54.30
2022-08-31T17:52:50.838Z,54.40
2022-08-31T17:55:20.338Z,54.50
2022-08-31T17:57:49.757Z,54.70
2022-08-31T18:00:19.384Z,54.80
2022-08-31T18:02:49.651Z,55.50
2022-08-31T18:05:19.313Z,54.90
2022-08-31T18:07:50.869Z,54.90
2022-08-31T18:10:23.008Z,55.00
2022-08-31T18:12:52.344Z,55.30
2022-08-31T18:15:21.689Z,55.60
2022-08-31T18:17:50.989Z,55.80
2022-08-31T18:20:20.675Z,55.90
2022-08-31T18:22:52.445Z,56.00
2022-08-31T18:25:21.995Z,56.10
2022-08-31T18:27:51.398Z,56.10
2022-08-31T18:30:21.103Z,56.00
2022-08-31T18:32:51.304Z,56.20
2022-08-31T18:35:20.627Z,56.30
2022-08-31T18:37:49.916Z,56.30
2022-08-31T18:40:37.529Z,56.30
2022-08-31T18:43:25.307Z,56.30
2022-08-31T18:45:54.881Z,56.20
2022-08-31T18:48:26.326Z,56.20
2022-08-31T18:50:59.138Z,56.20
2022-08-31T18:53:32.521Z,56.20
2022-08-31T18:56:11.809Z,56.10
2022-08-31T18:58:45.116Z,56.50
2022-08-31T19:01:15.783Z,56.60
2022-08-31T19:03:45.960Z,56.60
2022-08-31T19:06:23.722Z,56.80
2022-08-31T19:08:53.611Z,56.80
2022-08-31T19:11:24.039Z,56.80
2022-08-31T19:13:54.305Z,56.70
2022-08-31T19:16:28.409Z,56.70
2022-08-31T19:18:58.925Z,56.60
2022-08-31T19:21:32.753Z,56.50
2022-08-31T19:24:07.385Z,56.30
2022-08-31T19:26:53.210Z,56.20
2022-08-31T19:29:27.857Z,56.30
2022-08-31T19:32:00.292Z,56.30
2022-08-31T19:34:34.190Z,56.40
2022-08-31T19:37:07.748Z,56.40
2022-08-31T19:39:37.531Z,56.30
2022-08-31T19:42:08.873Z,56.60
2022-08-31T19:45:22.830Z,57.00
2022-08-31T19:47:32.200Z,57.20
2022-08-31T19:50:02.121Z,57.20
2022-08-31T19:52:36.232Z,57.20
2022-08-31T19:55:10.403Z,57.10
2022-08-31T19:57:43.382Z,57.00
2022-08-31T20:00:13.538Z,56.90
2022-08-31T20:02:44.815Z,56.80
2022-08-31T20:05:17.618Z,56.70
2022-08-31T20:07:47.279Z,56.60
2022-08-31T20:10:19.202Z,56.60
2022-08-31T20:12:48.511Z,56.70
2022-08-31T20:15:21.982Z,56.50
2022-08-31T20:17:57.363Z,56.40
2022-08-31T20:20:29.028Z,56.40
2022-08-31T20:22:58.788Z,56.40
2022-08-31T20:25:28.148Z,56.50
2022-08-31T20:27:59.551Z,56.30
2022-08-31T20:30:28.894Z,56.20
2022-08-31T20:32:58.252Z,56.00
2022-08-31T20:35:33.745Z,56.00
2022-08-31T20:38:03.142Z,56.00
2022-08-31T20:40:33.582Z,56.00
2022-08-31T20:43:08.637Z,56.60
2022-08-31T20:45:40.360Z,56.00
2022-08-31T20:48:29.314Z,56.10
2022-08-31T20:51:16.168Z,56.10
2022-08-31T20:53:48.620Z,56.10
2022-08-31T20:56:18.449Z,56.10
2022-08-31T20:58:48.447Z,56.10
2022-08-31T21:01:17.721Z,56.30
2022-08-31T21:03:47.065Z,56.40
2022-08-31T21:06:16.348Z,56.70
2022-08-31T21:08:46.223Z,56.70
2022-08-31T21:11:19.053Z,56.80
2022-08-31T21:13:50.115Z,56.80
2022-08-31T21:16:20.340Z,56.90
2022-08-31T21:18:50.011Z,56.90
2022-08-31T21:21:19.305Z,56.90
2022-08-31T21:23:48.742Z,56.90
2022-08-31T21:26:25.988Z,56.80
2022-08-31T21:28:59.887Z,56.80
2022-08-31T21:31:29.821Z,56.80
2022-08-31T21:34:02.568Z,56.60
2022-08-31T21:36:33.917Z,56.50
2022-08-31T21:39:08.638Z,56.50
2022-08-31T21:41:39.149Z,56.50
2022-08-31T21:44:11.907Z,56.60
2022-08-31T21:46:41.861Z,56.60
2022-08-31T21:49:11.852Z,56.70
2022-08-31T21:51:49.746Z,56.80
2022-08-31T21:54:24.128Z,56.80
2022-08-31T21:57:00.610Z,56.90
2022-08-31T21:59:36.210Z,56.90
2022-08-31T22:02:12.382Z,57.00
2022-08-31T22:04:44.254Z,57.00
2022-08-31T22:07:14.539Z,57.00
2022-08-31T22:09:44.020Z,57.00
2022-08-31T22:12:15.064Z,57.10
2022-08-31T22:14:44.998Z,57.10
2022-08-31T22:17:14.569Z,57.20
2022-08-31T22:19:43.825Z,57.20
2022-08-31T22:22:15.167Z,57.30
2022-08-31T22:24:44.494Z,57.50
2022-08-31T22:27:13.824Z,57.70
2022-08-31T22:29:43.246Z,57.60
2022-08-31T22:32:15.282Z,57.60
2022-08-31T22:34:46.169Z,57.60
2022-08-31T22:37:15.618Z,57.70
2022-08-31T22:39:45.166Z,57.80
2022-08-31T22:42:15.317Z,57.90
2022-08-31T22:44:44.765Z,58.20
2022-08-31T22:47:14.250Z,58.50
2022-08-31T22:49:43.626Z,58.90
2022-08-31T22:52:17.095Z,59.20
2022-08-31T22:54:46.713Z,59.50
2022-08-31T22:57:16.030Z,59.90
2022-08-31T22:59:45.320Z,60.10
2022-08-31T23:02:14.774Z,60.10
2022-08-31T23:04:44.453Z,60.10
2022-08-31T23:07:16.404Z,60.10
2022-08-31T23:09:46.117Z,60.20
2022-08-31T23:12:15.719Z,60.30
2022-08-31T23:14:44.989Z,60.30
2022-08-31T23:17:14.249Z,60.40
2022-08-31T23:19:43.817Z,60.30
2022-08-31T23:22:15.137Z,60.30
2022-08-31T23:24:49.114Z,60.60
2022-08-31T23:27:22.112Z,60.70
2022-08-31T23:29:56.590Z,60.80
2022-08-31T23:32:28.343Z,60.90
2022-08-31T23:34:58.520Z,60.90
2022-08-31T23:37:28.061Z,61.10
2022-08-31T23:39:59.944Z,61.30
2022-08-31T23:42:29.403Z,61.50
2022-08-31T23:44:59.055Z,61.70
2022-08-31T23:47:31.478Z,62.00
2022-08-31T23:50:04.813Z,62.40
2022-08-31T23:52:41.583Z,62.80
2022-08-31T23:55:11.549Z,63.20
2022-08-31T23:57:41.969Z,63.30
